Time;durP1;ratioP1;P1;durP2;ratioP2;P2;SDS_P1;SDS_P2;PMS_P1;PMS_P2;Temp;Humidity;BMP_temperature;BMP_pressure;BME280_temperature;BME280_humidity;BME280_pressure;Samples;Min_cycle;Max_cycle;Signal;HPM_P1;HPM_P2
2022/07/01 00:02:17;;;;;;;12.68;5.25;;;26.00;90.30;;;;;;5021647;28;20049;-73
2022/07/01 00:04:45;;;;;;;11.88;5.32;;;26.00;90.00;;;;;;5019551;28;20095;-73
2022/07/01 00:07:30;;;;;;;14.23;6.30;;;26.00;89.90;;;;;;5017034;28;20048;-73
2022/07/01 00:09:57;;;;;;;11.18;5.15;;;26.00;90.30;;;;;;5032337;28;20068;-73
2022/07/01 00:12:25;;;;;;;14.57;6.63;;;26.00;89.90;;;;;;5020280;28;20049;-73
2022/07/01 00:14:52;;;;;;;15.40;5.25;;;26.00;90.20;;;;;;5022092;28;20056;-73
2022/07/01 00:17:19;;;;;;;12.18;5.40;;;25.90;89.70;;;;;;5031098;28;20052;-73
2022/07/01 00:19:46;;;;;;;13.10;5.38;;;25.90;89.70;;;;;;5021043;28;20041;-73
2022/07/01 00:22:13;;;;;;;14.30;5.28;;;25.90;89.70;;;;;;5018353;28;20441;-73
2022/07/01 00:24:40;;;;;;;11.18;4.93;;;25.90;89.50;;;;;;5019098;28;21461;-73
2022/07/01 00:27:07;;;;;;;9.82;5.38;;;25.80;90.00;;;;;;5019262;28;20072;-73
2022/07/01 00:29:34;;;;;;;8.15;5.00;;;25.80;90.10;;;;;;5021249;28;20046;-73
2022/07/01 00:32:02;;;;;;;12.10;5.43;;;25.70;90.10;;;;;;5021076;28;20369;-73
2022/07/01 00:34:29;;;;;;;12.07;4.90;;;25.70;90.20;;;;;;5034894;28;20385;-73
2022/07/01 00:36:56;;;;;;;12.35;4.93;;;25.70;90.20;;;;;;5036066;28;20080;-73
2022/07/01 00:39:23;;;;;;;10.80;4.85;;;25.70;90.60;;;;;;5021484;28;20201;-73
2022/07/01 00:41:50;;;;;;;12.63;6.18;;;25.70;90.50;;;;;;5020183;28;20038;-73
2022/07/01 00:44:22;;;;;;;13.10;5.38;;;25.70;90.50;;;;;;5018276;28;20040;-73
2022/07/01 00:46:50;;;;;;;13.35;4.93;;;25.60;90.70;;;;;;5021879;28;20448;-73
2022/07/01 00:49:18;;;;;;;10.65;5.10;;;25.60;90.80;;;;;;5021234;28;20061;-73
2022/07/01 00:51:45;;;;;;;11.52;4.90;;;25.60;91.00;;;;;;5020490;28;20049;-73
2022/07/01 00:54:13;;;;;;;12.90;4.70;;;25.60;91.30;;;;;;5021979;28;20060;-74
2022/07/01 00:56:40;;;;;;;12.57;5.63;;;25.60;91.50;;;;;;5020634;28;20037;-73
2022/07/01 00:59:07;;;;;;;13.88;4.95;;;25.50;91.60;;;;;;5019513;28;20037;-73
2022/07/01 01:01:34;;;;;;;11.88;4.80;;;25.50;91.70;;;;;;5019949;28;20052;-73
2022/07/01 01:04:02;;;;;;;10.65;4.85;;;25.50;91.90;;;;;;5017491;28;20057;-73
2022/07/01 01:06:29;;;;;;;7.40;5.18;;;25.40;92.40;;;;;;5019023;28;20039;-73
2022/07/01 01:08:57;;;;;;;11.55;5.10;;;25.40;92.20;;;;;;5019027;28;20054;-73
2022/07/01 01:11:24;;;;;;;7.75;4.90;;;25.40;92.50;;;;;;5021372;28;20519;-73
2022/07/01 01:13:52;;;;;;;11.65;5.03;;;25.40;92.30;;;;;;5020496;28;20445;-73
2022/07/01 01:16:20;;;;;;;9.55;5.18;;;25.40;92.50;;;;;;5017381;28;20053;-73
2022/07/01 01:18:48;;;;;;;13.98;4.57;;;25.40;92.10;;;;;;5016331;28;20041;-73
2022/07/01 01:21:15;;;;;;;8.75;4.70;;;25.30;91.90;;;;;;5016571;28;20172;-73
2022/07/01 01:23:42;;;;;;;12.07;4.95;;;25.30;92.20;;;;;;5021677;28;20037;-73
2022/07/01 01:26:21;;;;;;;10.25;4.93;;;25.30;92.10;;;;;;5018921;28;20038;-73
2022/07/01 01:28:50;;;;;;;10.48;4.85;;;25.30;92.50;;;;;;5016334;28;20100;-73
2022/07/01 01:31:17;;;;;;;10.80;4.00;;;25.30;92.80;;;;;;5013417;28;20037;-73
2022/07/01 01:33:45;;;;;;;8.88;4.35;;;25.20;92.70;;;;;;5018353;28;20041;-73
2022/07/01 01:36:12;;;;;;;14.35;4.65;;;25.20;93.00;;;;;;5020068;28;20034;-73
2022/07/01 01:38:39;;;;;;;8.88;4.72;;;25.20;93.00;;;;;;5019789;28;20072;-73
2022/07/01 01:41:09;;;;;;;8.95;4.35;;;25.20;92.80;;;;;;5018853;28;20044;-73
2022/07/01 01:43:36;;;;;;;11.32;4.65;;;25.20;93.10;;;;;;5018803;28;20041;-73
2022/07/01 01:46:04;;;;;;;9.80;4.88;;;25.10;93.50;;;;;;5000929;28;20049;-73
2022/07/01 01:48:31;;;;;;;10.55;4.40;;;25.10;93.30;;;;;;5016972;28;20041;-73
2022/07/01 01:50:58;;;;;;;13.23;4.97;;;25.10;93.30;;;;;;5019325;28;20046;-73
2022/07/01 01:53:26;;;;;;;11.77;4.75;;;25.00;93.40;;;;;;5026334;28;20132;-73
2022/07/01 01:55:53;;;;;;;8.95;4.60;;;25.00;93.70;;;;;;5000773;28;20041;-73
2022/07/01 01:58:20;;;;;;;10.77;4.60;;;25.00;93.40;;;;;;5020851;28;20116;-73
2022/07/01 02:00:51;;;;;;;9.43;4.60;;;25.00;93.00;;;;;;5019379;28;20053;-74
2022/07/01 02:03:18;;;;;;;10.27;4.68;;;24.90;93.00;;;;;;5018264;28;20099;-73
2022/07/01 02:05:45;;;;;;;12.13;5.32;;;24.90;92.80;;;;;;5020529;28;20048;-73
2022/07/01 02:08:13;;;;;;;11.73;4.97;;;24.90;92.80;;;;;;5019771;28;20080;-73
2022/07/01 02:10:40;;;;;;;12.65;5.15;;;24.90;92.80;;;;;;5016240;28;20693;-73
2022/07/01 02:13:07;;;;;;;10.18;5.40;;;24.90;92.90;;;;;;5002954;28;20053;-73
2022/07/01 02:15:35;;;;;;;9.63;4.75;;;24.90;93.10;;;;;;4997426;28;21226;-73
2022/07/01 02:18:02;;;;;;;11.75;4.63;;;24.80;93.00;;;;;;5004077;28;20076;-73
2022/07/01 02:20:29;;;;;;;12.65;4.82;;;24.80;93.20;;;;;;5020033;28;20048;-73
2022/07/01 02:22:56;;;;;;;12.18;4.88;;;24.80;93.60;;;;;;5035039;28;20251;-73
2022/07/01 02:25:23;;;;;;;10.95;5.15;;;24.80;93.60;;;;;;5020458;28;20033;-73
2022/07/01 02:27:50;;;;;;;12.38;4.60;;;24.70;93.40;;;;;;5020743;28;20404;-73
2022/07/01 02:30:18;;;;;;;16.23;5.28;;;24.70;93.90;;;;;;5028251;28;20053;-73
2022/07/01 02:32:45;;;;;;;9.27;5.03;;;24.70;94.20;;;;;;5019705;28;20160;-73
2022/07/01 02:35:13;;;;;;;17.08;5.00;;;24.70;94.20;;;;;;5015493;28;20061;-73
2022/07/01 02:37:40;;;;;;;9.95;4.70;;;24.70;94.20;;;;;;5019466;28;20053;-73
2022/07/01 02:40:09;;;;;;;10.18;5.57;;;24.70;94.10;;;;;;5015879;28;20053;-73
2022/07/01 02:42:36;;;;;;;11.07;5.72;;;24.70;93.30;;;;;;5022676;28;20045;-73
2022/07/01 02:45:06;;;;;;;11.07;5.55;;;24.60;93.20;;;;;;5021772;28;20497;-73
2022/07/01 02:47:37;;;;;;;11.02;5.82;;;24.60;93.40;;;;;;5022401;28;20064;-73
2022/07/01 02:50:07;;;;;;;17.33;5.95;;;24.60;93.30;;;;;;5021995;28;20119;-73
2022/07/01 02:52:36;;;;;;;9.13;5.55;;;24.60;93.50;;;;;;5023120;28;20060;-73
2022/07/01 02:55:05;;;;;;;15.85;5.65;;;24.50;93.50;;;;;;5023017;28;20060;-73
2022/07/01 02:57:32;;;;;;;14.98;5.93;;;24.60;93.40;;;;;;5006789;28;20056;-73
2022/07/01 02:59:59;;;;;;;12.00;5.50;;;24.60;93.60;;;;;;5021208;28;20121;-73
2022/07/01 03:02:27;;;;;;;12.25;5.60;;;24.50;93.60;;;;;;5021406;28;20400;-73
2022/07/01 03:04:54;;;;;;;10.70;5.63;;;24.60;93.30;;;;;;5017693;28;20049;-72
2022/07/01 03:07:21;;;;;;;15.40;6.63;;;24.50;93.60;;;;;;5023301;28;20049;-73
2022/07/01 03:09:49;;;;;;;15.73;5.93;;;24.50;93.70;;;;;;5022494;28;20073;-73
2022/07/01 03:12:25;;;;;;;12.48;5.65;;;24.40;93.60;;;;;;5017776;28;20051;-73
2022/07/01 03:15:22;;;;;;;15.32;5.38;;;24.50;93.70;;;;;;5023933;28;20116;-73
2022/07/01 03:17:49;;;;;;;11.27;5.72;;;24.40;93.80;;;;;;5017444;28;20141;-73
2022/07/01 03:20:17;;;;;;;12.02;5.60;;;24.40;94.00;;;;;;5005367;28;20505;-74
2022/07/01 03:22:46;;;;;;;16.38;6.70;;;24.40;94.10;;;;;;5020735;28;20709;-73
2022/07/01 03:25:14;;;;;;;9.77;5.70;;;24.30;93.90;;;;;;5019778;28;20045;-73
2022/07/01 03:27:44;;;;;;;7.88;5.72;;;24.30;94.10;;;;;;5013496;28;20052;-73
2022/07/01 03:30:14;;;;;;;9.13;6.28;;;24.30;94.20;;;;;;5020976;28;20050;-73
2022/07/01 03:32:41;;;;;;;12.57;6.05;;;24.30;94.60;;;;;;5036406;28;20058;-73
2022/07/01 03:37:55;;;;;;;10.25;5.55;;;24.40;94.50;;;;;;5020419;28;20066;-73
2022/07/01 03:40:23;;;;;;;11.27;6.05;;;24.40;94.50;;;;;;5022611;28;20048;-73
2022/07/01 03:42:50;;;;;;;17.27;6.05;;;24.50;94.10;;;;;;5020065;28;20065;-73
2022/07/01 03:45:17;;;;;;;12.48;5.97;;;24.50;94.40;;;;;;5021890;28;20087;-73
2022/07/01 03:47:49;;;;;;;16.27;6.68;;;24.40;94.20;;;;;;5022014;28;20041;-73
2022/07/01 03:50:18;;;;;;;11.70;6.05;;;24.50;94.30;;;;;;5020654;28;20546;-73
2022/07/01 03:52:45;;;;;;;11.23;6.47;;;24.50;93.90;;;;;;5021330;28;20054;-73
2022/07/01 03:55:12;;;;;;;15.45;6.35;;;24.50;94.00;;;;;;5020767;28;20100;-73
2022/07/01 03:57:40;;;;;;;11.30;6.70;;;24.60;94.30;;;;;;5017759;28;20549;-73
2022/07/01 04:00:08;;;;;;;11.40;6.65;;;24.60;94.50;;;;;;5015828;28;20063;-73
2022/07/01 04:02:35;;;;;;;9.60;5.45;;;24.60;94.80;;;;;;5020656;28;20049;-73
2022/07/01 04:05:02;;;;;;;19.02;6.10;;;24.70;95.10;;;;;;5017944;28;20037;-73
2022/07/01 04:07:30;;;;;;;12.90;6.53;;;24.70;94.30;;;;;;5018106;28;20922;-73
2022/07/01 04:09:57;;;;;;;15.55;6.78;;;24.70;94.20;;;;;;5001921;28;20041;-73
2022/07/01 04:12:24;;;;;;;15.27;5.70;;;24.70;94.20;;;;;;5017462;28;20045;-73
2022/07/01 04:14:51;;;;;;;10.68;6.57;;;24.70;93.90;;;;;;4997828;28;20048;-73
2022/07/01 04:17:18;;;;;;;12.60;6.45;;;24.80;93.80;;;;;;5019948;28;20085;-73
2022/07/01 04:19:45;;;;;;;13.85;6.78;;;24.90;94.10;;;;;;5019607;28;20057;-73
2022/07/01 04:22:46;;;;;;;12.65;5.68;;;24.90;94.50;;;;;;5019929;28;20046;-73
2022/07/01 04:25:07;;;;;;;16.20;6.22;;;25.00;94.80;;;;;;5019707;28;20070;-73
2022/07/01 04:27:34;;;;;;;13.20;6.80;;;25.10;94.70;;;;;;5036545;28;20386;-73
2022/07/01 04:30:04;;;;;;;14.55;6.40;;;25.10;95.10;;;;;;5021808;28;20135;-73
2022/07/01 04:32:31;;;;;;;20.52;7.80;;;25.20;94.30;;;;;;5022220;28;20041;-73
2022/07/01 04:34:58;;;;;;;11.32;6.07;;;25.30;93.80;;;;;;5021264;28;20590;-73
2022/07/01 04:37:26;;;;;;;12.25;5.80;;;25.30;93.80;;;;;;5018048;28;20049;-73
2022/07/01 04:39:53;;;;;;;14.13;6.63;;;25.40;93.40;;;;;;5022608;28;20038;-73
2022/07/01 04:42:21;;;;;;;19.05;6.53;;;25.30;92.60;;;;;;5021288;28;20056;-73
2022/07/01 04:44:49;;;;;;;14.50;6.10;;;25.50;92.70;;;;;;5023052;28;20116;-73
2022/07/01 04:47:16;;;;;;;20.02;6.55;;;25.50;92.70;;;;;;5004236;28;20059;-73
2022/07/01 04:49:44;;;;;;;11.35;6.30;;;25.70;92.90;;;;;;5020236;28;20046;-73
2022/07/01 04:52:11;;;;;;;14.45;6.03;;;25.70;93.20;;;;;;5018830;28;20050;-74
2022/07/01 04:54:38;;;;;;;15.05;6.25;;;25.80;92.80;;;;;;5019702;28;20054;-74
2022/07/01 04:57:05;;;;;;;15.07;5.90;;;25.90;92.70;;;;;;5021397;28;20049;-73
2022/07/01 04:59:33;;;;;;;13.43;6.90;;;26.00;93.00;;;;;;5020190;28;20046;-73
2022/07/01 05:02:01;;;;;;;9.65;5.25;;;26.00;93.10;;;;;;4994445;28;20053;-74
2022/07/01 05:04:28;;;;;;;9.15;5.63;;;26.10;92.60;;;;;;4989242;28;20046;-73
2022/07/01 05:06:55;;;;;;;17.90;6.28;;;26.20;92.30;;;;;;5005986;28;20049;-74
2022/07/01 05:09:22;;;;;;;12.57;5.25;;;26.30;92.50;;;;;;4991914;28;22463;-74
2022/07/01 05:11:53;;;;;;;9.50;4.88;;;26.40;91.70;;;;;;4988718;28;20054;-73
2022/07/01 05:14:20;;;;;;;16.80;5.15;;;26.50;91.10;;;;;;4989299;28;20457;-73
2022/07/01 05:16:47;;;;;;;12.15;5.45;;;26.60;90.50;;;;;;4992169;28;20046;-75
2022/07/01 05:22:00;;;;;;;11.70;4.88;;;26.80;90.50;;;;;;4977771;28;20061;-74
2022/07/01 05:24:31;;;;;;;14.40;4.93;;;26.90;90.00;;;;;;4990886;28;20044;-74
2022/07/01 05:27:00;;;;;;;11.23;4.80;;;27.00;90.60;;;;;;4991975;28;20049;-74
2022/07/01 05:29:28;;;;;;;13.02;5.25;;;27.20;90.50;;;;;;4991966;28;20052;-74
2022/07/01 05:31:56;;;;;;;11.10;4.80;;;27.20;90.30;;;;;;4994140;28;20174;-74
2022/07/01 05:34:23;;;;;;;14.00;5.65;;;27.40;89.30;;;;;;4990334;28;20053;-74
2022/07/01 05:36:50;;;;;;;8.38;4.78;;;27.40;88.90;;;;;;4986992;28;20084;-74
2022/07/01 05:39:17;;;;;;;11.13;5.45;;;27.60;87.40;;;;;;4991776;28;20057;-74
2022/07/01 05:41:45;;;;;;;13.23;5.53;;;27.70;87.60;;;;;;4994445;28;20159;-75
2022/07/01 05:44:13;;;;;;;10.68;5.03;;;27.80;88.20;;;;;;4992705;28;20196;-75
2022/07/01 05:46:40;;;;;;;14.13;6.43;;;27.90;86.50;;;;;;4981134;28;20049;-75
2022/07/01 05:49:07;;;;;;;13.50;6.05;;;28.00;85.50;;;;;;4993883;28;20085;-75
2022/07/01 05:51:40;;;;;;;11.95;5.43;;;28.10;85.40;;;;;;4995507;28;20483;-75
2022/07/01 05:54:07;;;;;;;14.57;5.50;;;28.10;83.90;;;;;;4992523;28;20172;-75
2022/07/01 05:56:34;;;;;;;12.93;5.93;;;28.20;85.30;;;;;;4997380;28;20049;-75
2022/07/01 05:59:02;;;;;;;9.45;5.72;;;28.30;84.00;;;;;;4993707;28;20052;-75
2022/07/01 06:01:29;;;;;;;10.68;5.32;;;28.50;83.80;;;;;;4991046;28;20056;-76
2022/07/01 06:03:56;;;;;;;9.00;4.90;;;28.60;83.60;;;;;;4990725;28;20041;-74
2022/07/01 06:06:24;;;;;;;10.60;5.30;;;28.70;82.90;;;;;;4990511;28;20041;-75
2022/07/01 06:08:51;;;;;;;12.35;5.07;;;28.90;82.10;;;;;;4977148;28;20049;-74
2022/07/01 06:11:18;;;;;;;10.55;4.70;;;29.00;82.70;;;;;;4979531;28;20072;-75
2022/07/01 06:13:45;;;;;;;10.02;5.00;;;29.00;81.50;;;;;;4983442;28;20055;-74
2022/07/01 06:16:12;;;;;;;6.97;5.30;;;29.10;80.00;;;;;;4973795;28;20060;-74
2022/07/01 06:18:39;;;;;;;11.00;5.68;;;29.30;79.30;;;;;;4988277;28;20053;-75
2022/07/01 06:21:07;;;;;;;9.82;5.28;;;29.30;79.20;;;;;;4986353;28;22496;-74
2022/07/01 06:23:34;;;;;;;9.90;5.53;;;29.40;79.00;;;;;;4975600;28;20860;-74
2022/07/01 06:26:01;;;;;;;12.05;5.13;;;29.50;78.40;;;;;;4982243;28;22650;-74
2022/07/01 06:28:29;;;;;;;9.02;4.90;;;29.60;78.60;;;;;;4980878;28;20050;-74
2022/07/01 06:30:57;;;;;;;10.43;4.88;;;29.80;77.30;;;;;;4976222;28;20081;-75
2022/07/01 06:33:27;;;;;;;9.30;4.70;;;29.80;77.00;;;;;;4990047;28;20095;-75
2022/07/01 06:35:54;;;;;;;12.00;5.25;;;30.00;76.80;;;;;;4985778;28;20107;-75
2022/07/01 06:38:21;;;;;;;7.78;4.85;;;30.10;76.80;;;;;;4976978;28;20571;-75
2022/07/01 06:41:26;;;;;;;8.77;4.75;;;30.30;75.90;;;;;;4990165;28;20056;-74
2022/07/01 06:43:35;;;;;;;21.27;5.63;;;30.40;74.90;;;;;;4989554;28;20045;-75
2022/07/01 06:46:03;;;;;;;8.90;5.22;;;30.40;73.00;;;;;;4988723;28;20049;-75
2022/07/01 06:48:31;;;;;;;9.93;4.60;;;30.50;73.10;;;;;;4987698;28;20129;-76
2022/07/01 06:50:58;;;;;;;9.95;5.43;;;30.60;73.20;;;;;;4993992;28;20049;-75
2022/07/01 06:53:25;;;;;;;10.75;4.82;;;30.70;73.30;;;;;;4983335;28;20694;-75
2022/07/01 06:55:52;;;;;;;9.68;4.80;;;30.80;73.30;;;;;;4975628;28;20064;-75
2022/07/01 06:58:20;;;;;;;11.05;4.75;;;30.60;72.90;;;;;;4989702;28;20283;-76
2022/07/01 07:00:47;;;;;;;8.52;4.63;;;30.60;73.00;;;;;;4981924;28;20049;-75
2022/07/01 07:03:14;;;;;;;10.07;4.95;;;30.70;74.20;;;;;;4984901;28;20046;-75
2022/07/01 07:05:41;;;;;;;6.07;4.22;;;30.80;73.00;;;;;;4974600;28;20045;-75
2022/07/01 07:08:08;;;;;;;13.10;4.55;;;31.00;72.60;;;;;;4991170;28;20075;-75
2022/07/01 07:10:35;;;;;;;6.38;4.70;;;31.20;73.60;;;;;;4996338;28;20054;-75
2022/07/01 07:13:02;;;;;;;10.10;4.90;;;31.30;70.80;;;;;;4978170;28;20098;-75
2022/07/01 07:15:30;;;;;;;11.18;4.63;;;31.50;72.30;;;;;;4998971;28;20065;-75
2022/07/01 07:17:57;;;;;;;10.70;4.63;;;31.60;71.50;;;;;;4990088;28;22182;-75
2022/07/01 07:20:25;;;;;;;12.48;4.82;;;31.60;71.70;;;;;;4989317;28;20058;-75
2022/07/01 07:22:53;;;;;;;8.05;4.28;;;31.70;71.50;;;;;;5009716;28;20476;-75
2022/07/01 07:25:20;;;;;;;8.00;3.47;;;31.70;71.00;;;;;;4987702;28;20405;-75
2022/07/01 07:27:47;;;;;;;11.65;4.38;;;31.80;70.40;;;;;;4999076;28;20075;-76
2022/07/01 07:30:14;;;;;;;10.88;3.55;;;31.70;67.60;;;;;;4976111;28;21705;-75
2022/07/01 07:32:42;;;;;;;9.82;3.75;;;31.80;68.00;;;;;;4998537;28;20057;-76
2022/07/01 07:35:09;;;;;;;11.13;3.83;;;32.00;70.10;;;;;;4990060;28;21238;-75
2022/07/01 07:37:37;;;;;;;9.77;3.35;;;32.20;68.20;;;;;;4984697;28;21043;-73
2022/07/01 07:40:07;;;;;;;7.80;3.90;;;32.20;68.30;;;;;;4981492;28;20041;-74
2022/07/01 07:42:34;;;;;;;7.00;3.28;;;32.20;70.50;;;;;;4978957;28;20088;-75
2022/07/01 07:45:03;;;;;;;10.65;3.25;;;32.30;68.40;;;;;;4990409;28;20048;-75
2022/07/01 07:47:30;;;;;;;5.20;3.00;;;32.20;67.50;;;;;;4992027;28;22436;-75
2022/07/01 07:49:57;;;;;;;8.65;3.30;;;32.30;69.00;;;;;;4988168;28;20088;-75
2022/07/01 07:52:24;;;;;;;8.38;3.17;;;32.50;67.00;;;;;;4994651;28;20045;-75
2022/07/01 07:54:51;;;;;;;8.18;2.50;;;32.50;66.40;;;;;;4988624;28;20053;-74
2022/07/01 07:57:19;;;;;;;7.18;2.83;;;32.50;65.30;;;;;;4997613;28;20728;-74
2022/07/01 07:59:46;;;;;;;5.97;2.83;;;32.60;65.70;;;;;;4986623;28;20046;-74
2022/07/01 08:02:13;;;;;;;7.10;2.92;;;32.70;65.10;;;;;;4995299;28;23113;-75
2022/07/01 08:04:40;;;;;;;7.72;2.83;;;32.60;66.00;;;;;;4973491;28;20053;-74
2022/07/01 08:07:08;;;;;;;6.40;3.20;;;32.80;65.60;;;;;;4991445;28;20049;-76
2022/07/01 08:09:36;;;;;;;9.73;4.07;;;32.80;64.70;;;;;;4981837;28;20052;-76
2022/07/01 08:12:03;;;;;;;8.85;3.90;;;32.80;65.70;;;;;;5016266;28;20052;-75
2022/07/01 08:14:30;;;;;;;8.80;3.58;;;32.90;64.80;;;;;;4992195;28;20056;-76
2022/07/01 08:16:57;;;;;;;7.45;3.05;;;33.00;65.90;;;;;;4997736;28;20060;-74
2022/07/01 08:19:25;;;;;;;7.90;3.30;;;33.00;66.20;;;;;;4997718;28;20041;-76
2022/07/01 08:21:52;;;;;;;7.43;3.80;;;33.20;62.90;;;;;;4989313;28;20203;-74
2022/07/01 08:24:19;;;;;;;10.13;4.43;;;33.10;62.10;;;;;;4962740;28;20049;-75
2022/07/01 08:26:46;;;;;;;7.05;3.50;;;33.20;62.40;;;;;;5019999;28;20060;-76
2022/07/01 08:29:13;;;;;;;5.85;3.35;;;33.20;61.90;;;;;;4988467;28;20041;-74
2022/07/01 08:31:40;;;;;;;10.23;3.40;;;33.30;61.80;;;;;;4970460;28;20050;-76
2022/07/01 08:34:09;;;;;;;5.90;3.65;;;33.40;62.30;;;;;;4997733;28;20061;-75
2022/07/01 08:36:36;;;;;;;10.68;3.75;;;33.30;63.10;;;;;;5004876;28;20660;-74
2022/07/01 08:39:03;;;;;;;8.30;3.17;;;33.40;61.80;;;;;;4995711;28;20188;-74
2022/07/01 08:41:31;;;;;;;10.07;3.72;;;33.30;60.30;;;;;;4991060;28;20038;-74
2022/07/01 08:43:58;;;;;;;7.22;3.35;;;33.30;60.60;;;;;;4988519;28;20049;-74
2022/07/01 08:46:28;;;;;;;10.10;3.80;;;33.30;61.20;;;;;;4974910;28;21044;-75
2022/07/01 08:48:55;;;;;;;10.95;3.72;;;33.40;62.30;;;;;;4991599;28;20088;-76
2022/07/01 08:51:22;;;;;;;9.63;3.47;;;33.50;60.30;;;;;;4982069;28;20056;-74
2022/07/01 08:53:49;;;;;;;9.52;3.30;;;33.50;59.90;;;;;;4998463;28;20398;-75
2022/07/01 08:59:03;;;;;;;7.60;2.90;;;33.50;60.80;;;;;;4992195;28;20118;-76
2022/07/01 09:01:30;;;;;;;7.65;3.67;;;33.40;59.80;;;;;;4981346;28;20045;-76
2022/07/01 09:04:14;;;;;;;7.25;3.03;;;33.50;60.50;;;;;;4995617;28;20091;-76
2022/07/01 09:06:41;;;;;;;6.68;3.28;;;33.70;60.10;;;;;;4988208;28;20074;-74
2022/07/01 09:09:21;;;;;;;7.95;2.72;;;33.60;59.30;;;;;;5003347;28;20121;-75
2022/07/01 09:11:53;;;;;;;6.72;3.00;;;33.60;60.00;;;;;;4998449;28;20056;-75
2022/07/01 09:14:22;;;;;;;9.68;3.10;;;33.60;60.20;;;;;;4985735;28;20065;-74
2022/07/01 09:16:55;;;;;;;4.30;2.58;;;33.50;60.40;;;;;;4990929;28;20098;-75
2022/07/01 09:19:22;;;;;;;11.05;3.33;;;33.70;61.00;;;;;;4993228;28;20138;-74
2022/07/01 09:21:51;;;;;;;7.85;3.13;;;33.70;61.10;;;;;;4979104;28;20188;-74
2022/07/01 09:24:44;;;;;;;6.25;2.58;;;33.70;60.20;;;;;;5007957;28;20049;-74
2022/07/01 09:27:19;;;;;;;10.98;3.10;;;33.70;60.70;;;;;;4994302;28;20042;-74
2022/07/01 09:29:50;;;;;;;5.78;2.75;;;33.80;60.40;;;;;;4980989;28;20052;-76
2022/07/01 09:32:22;;;;;;;9.57;3.10;;;33.90;59.00;;;;;;4976800;28;20049;-76
2022/07/01 09:34:52;;;;;;;10.95;2.95;;;33.70;59.60;;;;;;4988376;28;20053;-76
2022/07/01 09:37:25;;;;;;;7.70;4.05;;;33.50;59.00;;;;;;4990249;28;20057;-76
2022/07/01 09:39:53;;;;;;;8.32;3.25;;;33.60;60.20;;;;;;4986098;28;20065;-73
2022/07/01 09:42:23;;;;;;;6.85;3.42;;;33.70;59.10;;;;;;4975019;28;20056;-75
2022/07/01 09:44:56;;;;;;;7.10;3.17;;;33.80;59.00;;;;;;4999496;28;20045;-75
2022/07/01 09:47:30;;;;;;;6.03;3.15;;;33.70;58.50;;;;;;4989143;28;21102;-75
2022/07/01 09:49:58;;;;;;;10.88;4.13;;;33.70;59.60;;;;;;4988234;28;20045;-74
2022/07/01 09:52:26;;;;;;;9.25;3.22;;;33.90;59.80;;;;;;5009193;28;20056;-76
2022/07/01 09:55:06;;;;;;;12.25;3.13;;;33.90;58.50;;;;;;5009547;28;20061;-75
2022/07/01 09:57:33;;;;;;;8.75;3.60;;;34.00;58.40;;;;;;5006446;28;20049;-76
2022/07/01 10:00:00;;;;;;;8.95;3.85;;;34.10;58.10;;;;;;5004904;28;20053;-74
2022/07/01 10:02:33;;;;;;;11.30;3.85;;;34.00;58.50;;;;;;4989761;28;20053;-74
2022/07/01 10:05:07;;;;;;;8.18;3.88;;;34.00;59.40;;;;;;4990571;28;22621;-75
2022/07/01 10:08:26;;;;;;;12.10;3.53;;;34.10;58.40;;;;;;4971968;28;20381;-76
2022/07/01 10:10:59;;;;;;;10.95;3.08;;;34.20;58.40;;;;;;4984702;28;20127;-76
2022/07/01 10:13:27;;;;;;;8.55;4.00;;;34.00;57.90;;;;;;4969446;28;22394;-76
2022/07/01 10:15:56;;;;;;;9.15;4.00;;;34.00;59.00;;;;;;4971805;28;20049;-75
2022/07/01 10:18:26;;;;;;;6.32;3.60;;;33.90;59.50;;;;;;4995063;28;20976;-75
2022/07/01 10:20:57;;;;;;;8.88;3.92;;;34.00;58.70;;;;;;4969426;28;20083;-75
2022/07/01 10:23:28;;;;;;;12.85;3.88;;;34.10;59.20;;;;;;4985385;28;20621;-75
2022/07/01 10:26:02;;;;;;;;;;;34.30;58.60;;;;;;4994642;28;22148;-75
2022/07/01 10:28:49;;;;;;;6.13;3.03;;;34.20;57.80;;;;;;4996789;28;19928;-74
2022/07/01 10:31:17;;;;;;;9.40;4.00;;;34.10;58.00;;;;;;4997215;28;20139;-78
2022/07/01 10:33:55;;;;;;;8.93;3.28;;;34.10;57.00;;;;;;4988106;28;20631;-73
2022/07/01 10:36:22;;;;;;;7.18;3.15;;;34.10;57.10;;;;;;4983071;28;20508;-77
2022/07/01 10:39:08;;;;;;;9.02;2.97;;;34.30;57.30;;;;;;4979758;28;20053;-75
2022/07/01 10:41:39;;;;;;;9.40;3.13;;;34.20;55.40;;;;;;4984341;28;20042;-74
2022/07/01 10:44:12;;;;;;;10.30;3.05;;;34.10;56.30;;;;;;4976880;28;20144;-73
2022/07/01 10:46:57;;;;;;;7.40;3.05;;;34.00;55.70;;;;;;4980003;28;20049;-75
2022/07/01 10:49:36;;;;;;;10.18;3.83;;;34.00;56.60;;;;;;4981439;28;20041;-74
2022/07/01 10:52:08;;;;;;;9.27;3.00;;;34.10;57.90;;;;;;4976365;28;20128;-77
2022/07/01 10:54:39;;;;;;;;;;;34.20;55.40;;;;;;4965797;28;20066;-76
2022/07/01 10:57:23;;;;;;;;;;;34.40;55.00;;;;;;4965268;28;19936;-75
2022/07/01 11:00:14;;;;;;;6.10;2.88;;;34.40;55.10;;;;;;4997759;28;20394;-78
2022/07/01 11:02:42;;;;;;;7.55;3.15;;;34.40;53.40;;;;;;4980225;28;20581;-75
2022/07/01 11:05:14;;;;;;;6.97;3.67;;;34.50;53.70;;;;;;4981794;28;20150;-76
2022/07/01 11:07:47;;;;;;;6.35;3.20;;;34.60;53.10;;;;;;4979794;28;20045;-76
2022/07/01 11:10:16;;;;;;;6.30;2.58;;;34.60;51.90;;;;;;4984299;28;20247;-75
2022/07/01 11:12:44;;;;;;;6.32;2.83;;;34.60;52.50;;;;;;4982268;28;20095;-74
2022/07/01 11:15:12;;;;;;;8.73;3.35;;;34.50;51.80;;;;;;4980388;28;20437;-75
2022/07/01 11:17:46;;;;;;;6.65;3.63;;;34.70;52.00;;;;;;4967205;28;20507;-73
2022/07/01 11:20:14;;;;;;;9.25;3.28;;;34.70;52.60;;;;;;4984235;28;20906;-75
2022/07/01 11:22:48;;;;;;;7.60;3.03;;;34.60;52.20;;;;;;4966757;28;22418;-74
2022/07/01 11:25:18;;;;;;;9.88;3.30;;;34.70;53.60;;;;;;4985476;28;20608;-76
2022/07/01 11:27:47;;;;;;;9.82;3.25;;;34.70;53.60;;;;;;4989582;28;20049;-74
2022/07/01 11:30:16;;;;;;;10.15;3.42;;;34.80;50.70;;;;;;4975265;28;20045;-76
2022/07/01 11:32:52;;;;;;;6.70;3.15;;;34.80;51.40;;;;;;4977617;28;20562;-77
2022/07/01 11:41:01;;;;;;;8.55;3.25;;;34.80;51.80;;;;;;4983461;28;20644;-75
2022/07/01 11:43:38;;;;;;;8.00;3.20;;;34.70;52.70;;;;;;4977303;28;20095;-75
2022/07/01 11:46:07;;;;;;;6.15;2.97;;;34.80;50.90;;;;;;4984226;28;20374;-75
2022/07/01 11:48:35;;;;;;;6.15;2.85;;;34.80;51.80;;;;;;4981443;28;20227;-75
2022/07/01 11:51:08;;;;;;;9.00;3.10;;;35.00;52.50;;;;;;4986647;28;20056;-75
2022/07/01 11:53:36;;;;;;;6.75;2.47;;;35.00;50.50;;;;;;4999116;28;20050;-76
2022/07/01 11:56:03;;;;;;;7.90;2.60;;;35.10;48.70;;;;;;4976634;28;20056;-75
2022/07/01 11:59:01;;;;;;;5.97;2.88;;;35.00;49.90;;;;;;4975785;28;20045;-76
2022/07/01 12:01:28;;;;;;;7.90;3.28;;;34.90;49.60;;;;;;4979189;28;22180;-75
2022/07/01 12:04:00;;;;;;;5.60;2.25;;;34.90;47.80;;;;;;4974399;28;20230;-77
2022/07/01 12:06:28;;;;;;;12.23;3.28;;;34.90;48.40;;;;;;4960003;28;20535;-76
2022/07/01 12:08:56;;;;;;;7.63;3.42;;;34.90;49.70;;;;;;4966577;28;20057;-75
2022/07/01 12:11:26;;;;;;;8.27;4.05;;;35.00;51.70;;;;;;4977209;28;20057;-74
2022/07/01 12:13:56;;;;;;;7.10;3.03;;;35.00;51.10;;;;;;4976438;28;20052;-75
2022/07/01 12:16:24;;;;;;;9.15;3.13;;;35.00;50.90;;;;;;4995079;28;20112;-76
2022/07/01 12:18:56;;;;;;;8.40;3.75;;;35.00;51.50;;;;;;4976242;28;20048;-75
2022/07/01 12:21:24;;;;;;;6.88;3.38;;;35.00;51.60;;;;;;4969066;28;22260;-74
2022/07/01 12:24:04;;;;;;;6.80;3.22;;;35.00;51.70;;;;;;4965927;28;20174;-75
2022/07/01 12:26:31;;;;;;;10.50;3.53;;;35.10;51.50;;;;;;4975481;28;20052;-75
2022/07/01 12:28:58;;;;;;;9.13;3.38;;;35.10;51.80;;;;;;4980252;28;20412;-75
2022/07/01 12:31:25;;;;;;;7.75;3.40;;;35.10;50.40;;;;;;4997856;28;20045;-75
2022/07/01 12:33:52;;;;;;;10.43;3.50;;;35.20;49.90;;;;;;4982712;28;20179;-75
2022/07/01 12:36:19;;;;;;;8.30;2.85;;;35.10;48.50;;;;;;4982940;28;20616;-76
2022/07/01 12:39:03;;;;;;;8.25;3.42;;;35.10;49.60;;;;;;4977248;28;20068;-76
2022/07/01 12:41:33;;;;;;;7.43;3.20;;;35.10;49.30;;;;;;4981430;28;20208;-77
2022/07/01 12:44:23;;;;;;;6.13;3.10;;;35.20;50.30;;;;;;4982854;28;20056;-74
2022/07/01 12:46:51;;;;;;;5.57;3.13;;;35.10;50.30;;;;;;4975711;28;20787;-74
2022/07/01 12:49:23;;;;;;;4.22;2.40;;;35.20;49.80;;;;;;4976124;28;20049;-78
2022/07/01 12:51:52;;;;;;;5.72;3.72;;;35.20;48.80;;;;;;4982456;28;20054;-74
2022/07/01 12:54:33;;;;;;;5.13;2.90;;;35.20;48.90;;;;;;4996536;28;20864;-76
2022/07/01 12:57:00;;;;;;;7.88;3.45;;;35.30;48.60;;;;;;4976368;28;20171;-75
2022/07/01 12:59:28;;;;;;;13.18;3.33;;;35.30;46.50;;;;;;4975775;28;20413;-74
2022/07/01 13:02:00;;;;;;;6.28;3.40;;;35.30;48.10;;;;;;4966527;28;20577;-75
2022/07/01 13:04:29;;;;;;;7.88;4.20;;;35.20;48.80;;;;;;4974284;28;20096;-76
2022/07/01 13:06:56;;;;;;;6.28;3.13;;;35.20;49.10;;;;;;4964575;28;20528;-76
2022/07/01 13:09:23;;;;;;;5.78;3.35;;;35.20;49.70;;;;;;4977023;28;20534;-75